Time;durP1;ratioP1;P1;durP2;ratioP2;P2;SDS_P1;SDS_P2;PMS_P1;PMS_P2;Temp;Humidity;BMP_temperature;BMP_pressure;BME280_temperature;BME280_humidity;BME280_pressure;Samples;Min_cycle;Max_cycle;Signal;HPM_P1;HPM_P2
2022/01/16 00:04:41;;;;;;;468.58;217.90;;;;;;;;;;4796333;29;20073;-83
2022/01/16 00:07:26;;;;;;;478.15;199.27;;;;;;;;;;4795548;29;20047;-80
2022/01/16 00:10:12;;;;;;;443.13;179.35;;;;;;;;;;4791231;30;20043;-79
2022/01/16 00:12:59;;;;;;;431.77;185.10;;;;;;;;;;4796782;29;20051;-79
2022/01/16 00:15:45;;;;;;;420.38;179.52;;;;;;;;;;4791744;30;20047;-82
2022/01/16 00:18:41;;;;;;;435.35;194.90;;;;;;;;;;4792451;30;20051;-79
2022/01/16 00:21:36;;;;;;;413.10;186.60;;;;;;;;;;4791630;30;20047;-81
2022/01/16 00:24:21;;;;;;;403.02;164.27;;;;;;;;;;4797658;29;20051;-81
2022/01/16 00:27:07;;;;;;;385.58;159.93;;;;;;;;;;4797394;29;20051;-81
2022/01/16 00:29:53;;;;;;;365.77;153.18;;;;;;;;;;4791573;30;20043;-80
2022/01/16 00:32:39;;;;;;;373.83;150.63;;;;;;;;;;4796870;29;20063;-81
2022/01/16 00:35:25;;;;;;;403.40;164.57;;;;;;;;;;4789632;30;20055;-83
2022/01/16 00:38:10;;;;;;;520.38;239.05;;;;;;;;;;4790738;30;20039;-81
2022/01/16 00:40:55;;;;;;;480.50;212.35;;;;;;;;;;4790629;30;20054;-79
2022/01/16 00:43:41;;;;;;;441.45;206.68;;;;;;;;;;4782812;29;20039;-84
2022/01/16 00:46:26;;;;;;;458.63;204.48;;;;;;;;;;4799359;29;20051;-82
2022/01/16 00:49:12;;;;;;;425.92;198.48;;;;;;;;;;4809090;29;20054;-81
2022/01/16 00:51:57;;;;;;;436.55;197.60;;;;;;;;;;4809464;29;20050;-80
2022/01/16 00:54:43;;;;;;;468.00;208.57;;;;;;;;;;4810297;29;20050;-81
2022/01/16 00:57:30;;;;;;;486.42;228.95;;;;;;;;;;4812777;29;20050;-82
2022/01/16 01:00:16;;;;;;;503.30;233.90;;;;;;;;;;4811955;29;20055;-80
2022/01/16 01:03:03;;;;;;;536.85;243.45;;;;;;;;;;4794977;29;20043;-82
2022/01/16 01:05:48;;;;;;;494.25;233.27;;;;;;;;;;4799619;29;20055;-80
2022/01/16 01:08:34;;;;;;;504.67;242.73;;;;;;;;;;4791807;30;20047;-80
2022/01/16 01:11:24;;;;;;;463.92;223.93;;;;;;;;;;4792105;30;20043;-80
2022/01/16 01:14:25;;;;;;;480.42;232.25;;;;;;;;;;4797313;29;20047;-81
2022/01/16 01:17:20;;;;;;;463.65;226.70;;;;;;;;;;4796540;29;20051;-81
2022/01/16 01:20:06;;;;;;;408.88;194.50;;;;;;;;;;4790806;30;20059;-82
2022/01/16 01:22:52;;;;;;;469.05;229.48;;;;;;;;;;4796056;29;20051;-80
2022/01/16 01:25:42;;;;;;;535.85;248.70;;;;;;;;;;4789806;30;20051;-80
2022/01/16 01:28:27;;;;;;;509.75;220.25;;;;;;;;;;4790846;30;20495;-81
2022/01/16 01:31:13;;;;;;;493.70;213.82;;;;;;;;;;4790441;30;20369;-80
2022/01/16 01:33:58;;;;;;;477.40;209.48;;;;;;;;;;4790871;30;20055;-80
2022/01/16 01:36:48;;;;;;;438.35;196.35;;;;;;;;;;4789524;30;20047;-82
2022/01/16 01:39:33;;;;;;;519.63;213.48;;;;;;;;;;4795861;29;20051;-82
2022/01/16 01:42:19;;;;;;;491.60;198.38;;;;;;;;;;4790317;30;20047;-82
2022/01/16 01:51:03;;;;;;;440.20;185.50;;;;;;;;;;4773466;30;20048;-82
2022/01/16 01:51:23;;;;;;;443.58;186.50;;;;;;;;;;4772505;30;20047;-80
2022/01/16 01:54:09;;;;;;;449.05;177.65;;;;;;;;;;4772397;30;20059;-81
2022/01/16 01:56:55;;;;;;;383.27;153.00;;;;;;;;;;4772292;30;20055;-80
2022/01/16 01:59:40;;;;;;;391.40;169.38;;;;;;;;;;4772324;30;20056;-81
2022/01/16 02:02:30;;;;;;;417.20;175.93;;;;;;;;;;4771954;30;20043;-82
2022/01/16 02:05:15;;;;;;;398.63;171.85;;;;;;;;;;4771742;30;20039;-82
2022/01/16 02:08:02;;;;;;;433.00;175.68;;;;;;;;;;4771879;30;20048;-81
2022/01/16 02:10:48;;;;;;;447.67;187.13;;;;;;;;;;4771503;30;20040;-81
2022/01/16 02:13:45;;;;;;;458.58;208.68;;;;;;;;;;4778296;30;20047;-82
2022/01/16 02:29:06;;;;;;;498.15;232.18;;;;;;;;;;4781314;30;20055;-81
2022/01/16 02:32:39;;;;;;;487.98;229.65;;;;;;;;;;4772310;30;20048;-82
2022/01/16 02:35:03;;;;;;;469.27;213.52;;;;;;;;;;4772121;30;20048;-81
2022/01/16 02:37:48;;;;;;;452.92;187.27;;;;;;;;;;4771713;30;20043;-82
2022/01/16 02:40:35;;;;;;;391.58;164.10;;;;;;;;;;4771308;30;20477;-82
2022/01/16 02:43:31;;;;;;;376.40;146.27;;;;;;;;;;4771262;30;20047;-82
2022/01/16 02:49:03;;;;;;;255.75;97.47;;;;;;;;;;4812638;29;20051;-81
2022/01/16 02:51:54;;;;;;;272.17;95.40;;;;;;;;;;4807259;29;20479;-82
2022/01/16 02:54:43;;;;;;;308.52;97.88;;;;;;;;;;4806932;29;20054;-82
2022/01/16 02:57:29;;;;;;;258.17;97.15;;;;;;;;;;4807006;29;20051;-82
2022/01/16 03:00:15;;;;;;;274.60;99.90;;;;;;;;;;4807265;29;20047;-81
2022/01/16 03:03:00;;;;;;;300.08;102.10;;;;;;;;;;4807132;29;20050;-81
2022/01/16 03:05:47;;;;;;;309.83;114.00;;;;;;;;;;4806394;29;20051;-81
2022/01/16 03:08:32;;;;;;;352.50;119.25;;;;;;;;;;4811945;29;20046;-82
2022/01/16 03:14:04;;;;;;;320.38;109.53;;;;;;;;;;4806674;29;20047;-81
2022/01/16 03:16:52;;;;;;;312.85;108.22;;;;;;;;;;4807651;29;20046;-80
2022/01/16 03:22:42;;;;;;;279.80;99.55;;;;;;;;;;4806027;29;20046;-79
2022/01/16 03:25:27;;;;;;;304.00;106.50;;;;;;;;;;4807156;29;20047;-81
2022/01/16 03:28:12;;;;;;;307.05;105.97;;;;;;;;;;4806565;29;20050;-82
2022/01/16 03:30:57;;;;;;;384.95;132.02;;;;;;;;;;4807072;29;20364;-81
2022/01/16 03:33:43;;;;;;;305.52;115.45;;;;;;;;;;4811996;29;20499;-81
2022/01/16 03:36:28;;;;;;;310.83;115.03;;;;;;;;;;4806463;29;20046;-81
2022/01/16 03:39:13;;;;;;;298.40;112.65;;;;;;;;;;4806806;29;20361;-80
2022/01/16 03:42:00;;;;;;;300.98;112.80;;;;;;;;;;4811620;29;20475;-81
2022/01/16 03:44:46;;;;;;;290.58;111.45;;;;;;;;;;4806752;29;20475;-80
2022/01/16 03:47:32;;;;;;;326.88;112.97;;;;;;;;;;4806261;29;20047;-81
2022/01/16 03:50:17;;;;;;;290.95;109.88;;;;;;;;;;4806623;29;20392;-81
2022/01/16 03:53:03;;;;;;;307.00;104.40;;;;;;;;;;4812362;29;20051;-81
2022/01/16 03:55:49;;;;;;;320.60;111.07;;;;;;;;;;4812774;29;20043;-80
2022/01/16 03:58:34;;;;;;;306.63;109.82;;;;;;;;;;4806843;29;20043;-79
2022/01/16 04:01:20;;;;;;;287.70;108.93;;;;;;;;;;4807305;29;20035;-80
2022/01/16 04:04:06;;;;;;;287.13;109.70;;;;;;;;;;4806226;29;20038;-79
2022/01/16 04:06:51;;;;;;;286.30;108.28;;;;;;;;;;4812651;29;20051;-82
2022/01/16 04:09:37;;;;;;;235.93;95.68;;;;;;;;;;4806563;29;20059;-82
2022/01/16 04:12:24;;;;;;;216.40;83.28;;;;;;;;;;4812426;29;20055;-82
2022/01/16 04:17:59;;;;;;;160.60;65.63;;;;;;;;;;4806173;29;20055;-80
2022/01/16 04:20:44;;;;;;;143.82;57.80;;;;;;;;;;4812914;29;20360;-80
2022/01/16 04:23:29;;;;;;;179.02;75.95;;;;;;;;;;4806224;29;20043;-80
2022/01/16 04:26:16;;;;;;;202.77;84.70;;;;;;;;;;4811863;29;20046;-82
2022/01/16 04:29:01;;;;;;;210.55;86.50;;;;;;;;;;4806138;29;20038;-81
2022/01/16 04:31:46;;;;;;;263.50;106.35;;;;;;;;;;4805674;29;20051;-80
2022/01/16 04:34:33;;;;;;;266.52;100.07;;;;;;;;;;4807293;29;20055;-82
2022/01/16 04:37:19;;;;;;;204.52;77.22;;;;;;;;;;4809962;29;20054;-82
2022/01/16 04:40:05;;;;;;;139.25;53.72;;;;;;;;;;4809064;29;20047;-81
2022/01/16 04:45:54;;;;;;;33.28;17.15;;;;;;;;;;4809287;29;20054;-80
2022/01/16 04:48:40;;;;;;;83.93;36.05;;;;;;;;;;4809745;29;20047;-82
2022/01/16 04:51:27;;;;;;;86.82;33.92;;;;;;;;;;4809558;29;20054;-80
2022/01/16 04:54:12;;;;;;;124.38;46.47;;;;;;;;;;4809222;29;20384;-81
2022/01/16 04:56:58;;;;;;;58.22;21.58;;;;;;;;;;4809202;29;20043;-79
2022/01/16 04:59:45;;;;;;;116.22;43.25;;;;;;;;;;4808953;29;20051;-81
2022/01/16 05:02:31;;;;;;;122.95;42.25;;;;;;;;;;4809217;29;20050;-81
2022/01/16 05:05:16;;;;;;;119.85;42.10;;;;;;;;;;4809242;29;20050;-81
2022/01/16 05:08:02;;;;;;;115.40;40.72;;;;;;;;;;4808813;29;20487;-80
2022/01/16 05:10:52;;;;;;;133.65;41.42;;;;;;;;;;4808449;29;20356;-80
2022/01/16 05:16:40;;;;;;;115.45;43.45;;;;;;;;;;4813501;29;20076;-80
2022/01/16 05:19:25;;;;;;;114.53;40.03;;;;;;;;;;4824292;29;20055;-80
2022/01/16 05:22:11;;;;;;;125.70;41.97;;;;;;;;;;4829239;29;20360;-80
2022/01/16 05:24:56;;;;;;;126.32;43.17;;;;;;;;;;4819050;29;20051;-80
2022/01/16 05:27:43;;;;;;;134.20;44.25;;;;;;;;;;4815049;29;20055;-82
2022/01/16 05:30:27;;;;;;;108.93;40.92;;;;;;;;;;4808927;29;20463;-80
2022/01/16 05:33:13;;;;;;;104.68;40.65;;;;;;;;;;4808977;29;20051;-79
2022/01/16 05:35:58;;;;;;;111.68;40.60;;;;;;;;;;4814125;29;20368;-81
2022/01/16 05:38:43;;;;;;;124.20;47.38;;;;;;;;;;4808582;29;20050;-79
2022/01/16 05:41:28;;;;;;;118.97;42.45;;;;;;;;;;4808515;29;20059;-81
2022/01/16 05:44:14;;;;;;;138.05;47.50;;;;;;;;;;4814227;29;20055;-83
2022/01/16 05:47:02;;;;;;;123.40;47.35;;;;;;;;;;4808844;29;20395;-79
2022/01/16 05:49:48;;;;;;;120.43;44.60;;;;;;;;;;4807842;29;20039;-79
2022/01/16 05:52:33;;;;;;;103.65;40.33;;;;;;;;;;4807930;29;20054;-81
2022/01/16 05:55:20;;;;;;;116.50;42.10;;;;;;;;;;4808083;29;20038;-81
2022/01/16 05:58:07;;;;;;;114.25;43.50;;;;;;;;;;4808336;29;20050;-83
2022/01/16 06:00:52;;;;;;;125.60;47.10;;;;;;;;;;4814473;29;20372;-80
2022/01/16 06:03:38;;;;;;;112.03;43.22;;;;;;;;;;4807628;29;20043;-79
2022/01/16 06:06:23;;;;;;;106.05;43.47;;;;;;;;;;4808303;29;20471;-78
2022/01/16 06:09:09;;;;;;;120.85;46.30;;;;;;;;;;4813663;29;20051;-81
2022/01/16 06:11:55;;;;;;;132.02;48.60;;;;;;;;;;4808793;29;20352;-80
2022/01/16 06:14:40;;;;;;;140.15;49.15;;;;;;;;;;4808771;29;20058;-82
2022/01/16 06:17:25;;;;;;;145.55;51.55;;;;;;;;;;4807930;29;20055;-80
2022/01/16 06:20:10;;;;;;;134.50;49.08;;;;;;;;;;4802361;29;20047;-80
2022/01/16 06:22:56;;;;;;;167.57;58.22;;;;;;;;;;4797522;29;20043;-82
2022/01/16 06:25:41;;;;;;;145.23;55.20;;;;;;;;;;4785831;29;20372;-82
2022/01/16 06:28:28;;;;;;;154.57;62.05;;;;;;;;;;4806760;29;20373;-83
2022/01/16 06:31:13;;;;;;;199.07;76.25;;;;;;;;;;4806121;29;20046;-81
2022/01/16 06:34:00;;;;;;;164.25;62.92;;;;;;;;;;4798417;29;20042;-80
2022/01/16 06:36:44;;;;;;;144.88;60.67;;;;;;;;;;4795564;29;20055;-81
2022/01/16 06:39:29;;;;;;;173.23;69.13;;;;;;;;;;4794159;29;20042;-80
2022/01/16 06:42:15;;;;;;;175.45;70.20;;;;;;;;;;4806164;29;20050;-79
2022/01/16 06:45:00;;;;;;;177.93;62.25;;;;;;;;;;4812823;29;20475;-78
2022/01/16 06:47:46;;;;;;;162.02;61.05;;;;;;;;;;4799238;29;20047;-83
2022/01/16 06:50:32;;;;;;;138.20;50.35;;;;;;;;;;4789694;30;20384;-80
2022/01/16 06:53:17;;;;;;;139.35;51.10;;;;;;;;;;4809631;29;20054;-82
2022/01/16 06:56:03;;;;;;;160.98;59.03;;;;;;;;;;4813388;29;20047;-80
2022/01/16 06:58:49;;;;;;;185.20;62.45;;;;;;;;;;4812058;29;20047;-82
2022/01/16 07:01:34;;;;;;;178.63;61.97;;;;;;;;;;4806798;29;20046;-79
2022/01/16 07:04:20;;;;;;;191.38;67.60;;;;;;;;;;4810910;29;20047;-80
2022/01/16 07:07:05;;;;;;;189.55;68.35;;;;;;;;;;4797972;29;20368;-79
2022/01/16 07:09:51;;;;;;;186.82;77.43;;;;;;;;;;4795228;29;20034;-79
2022/01/16 07:12:36;;;;;;;189.45;77.78;;;;;;;;;;4812248;29;20050;-80
2022/01/16 07:15:22;;;;;;;186.82;79.80;;;;;;;;;;4807234;29;20042;-79
2022/01/16 07:18:07;;;;;;;181.82;78.10;;;;;;;;;;4806154;29;20043;-81
2022/01/16 07:20:53;;;;;;;192.15;81.50;;;;;;;;;;4798786;29;20480;-79
2022/01/16 07:23:43;;;;;;;218.77;89.72;;;;;;;;;;4802172;29;20046;-80
2022/01/16 07:26:28;;;;;;;218.35;92.55;;;;;;;;;;4806663;29;20055;-80
2022/01/16 07:29:14;;;;;;;214.65;93.45;;;;;;;;;;4806845;29;20051;-80
2022/01/16 07:31:59;;;;;;;228.05;96.95;;;;;;;;;;4805364;29;20047;-80
2022/01/16 07:34:45;;;;;;;202.30;84.75;;;;;;;;;;4812091;29;20054;-83
2022/01/16 07:37:30;;;;;;;198.60;91.80;;;;;;;;;;4807807;29;20043;-81
2022/01/16 07:40:16;;;;;;;198.45;87.80;;;;;;;;;;4788892;29;20051;-80
2022/01/16 07:43:02;;;;;;;179.32;79.15;;;;;;;;;;4795177;29;20043;-81
2022/01/16 07:45:47;;;;;;;213.60;91.97;;;;;;;;;;4806680;29;20063;-81
2022/01/16 07:48:33;;;;;;;229.38;99.22;;;;;;;;;;4788570;30;20476;-83
2022/01/16 07:51:18;;;;;;;189.10;85.35;;;;;;;;;;4791172;30;20047;-81
2022/01/16 07:54:04;;;;;;;230.23;100.53;;;;;;;;;;4794370;30;20055;-82
2022/01/16 07:56:50;;;;;;;194.23;91.85;;;;;;;;;;4794483;30;20043;-80
2022/01/16 07:59:36;;;;;;;207.65;92.40;;;;;;;;;;4780956;30;20043;-84
2022/01/16 08:02:21;;;;;;;248.43;111.80;;;;;;;;;;4794653;29;20055;-82
2022/01/16 08:05:07;;;;;;;260.05;116.57;;;;;;;;;;4797222;29;20047;-84
2022/01/16 08:07:52;;;;;;;243.77;113.30;;;;;;;;;;4810825;29;20047;-82
2022/01/16 08:10:38;;;;;;;248.85;109.47;;;;;;;;;;4812086;29;20042;-82
2022/01/16 08:13:23;;;;;;;234.40;108.07;;;;;;;;;;4809737;29;20468;-80
2022/01/16 08:16:09;;;;;;;267.17;124.78;;;;;;;;;;4811119;29;20042;-82
2022/01/16 08:18:54;;;;;;;209.98;94.60;;;;;;;;;;4812078;29;20051;-81
2022/01/16 08:21:40;;;;;;;251.50;113.70;;;;;;;;;;4814940;29;20042;-80
2022/01/16 08:24:25;;;;;;;256.17;129.18;;;;;;;;;;4799534;29;20047;-81
2022/01/16 08:27:13;;;;;;;290.33;134.63;;;;;;;;;;4799128;29;20047;-82
2022/01/16 08:29:57;;;;;;;263.05;129.70;;;;;;;;;;4791368;29;20055;-81
2022/01/16 08:32:44;;;;;;;258.33;131.15;;;;;;;;;;4798185;29;20047;-82
2022/01/16 08:35:29;;;;;;;279.25;140.40;;;;;;;;;;4800638;29;20055;-81
2022/01/16 08:38:14;;;;;;;321.60;155.50;;;;;;;;;;4809484;29;20055;-82
2022/01/16 08:41:02;;;;;;;302.20;151.50;;;;;;;;;;4790076;29;20046;-80
2022/01/16 08:43:47;;;;;;;320.77;161.50;;;;;;;;;;4791172;30;20039;-81
2022/01/16 08:46:33;;;;;;;393.30;195.50;;;;;;;;;;4798840;29;20055;-82
2022/01/16 08:49:19;;;;;;;624.47;330.92;;;;;;;;;;4807579;29;20043;-81
2022/01/16 08:52:05;;;;;;;383.15;187.27;;;;;;;;;;4796954;29;20043;-81
2022/01/16 08:54:50;;;;;;;332.58;158.82;;;;;;;;;;4803947;29;20046;-82
2022/01/16 08:57:36;;;;;;;318.80;159.35;;;;;;;;;;4791015;30;20046;-81
2022/01/16 09:00:21;;;;;;;276.88;136.98;;;;;;;;;;4786125;29;20043;-81
2022/01/16 09:03:06;;;;;;;284.67;139.88;;;;;;;;;;4809644;29;20373;-81
2022/01/16 09:05:52;;;;;;;284.48;142.73;;;;;;;;;;4790838;30;20039;-82
2022/01/16 09:08:37;;;;;;;329.50;165.32;;;;;;;;;;4791565;30;20047;-82
2022/01/16 09:11:25;;;;;;;340.42;168.30;;;;;;;;;;4790943;30;20043;-82
2022/01/16 09:14:10;;;;;;;336.45;176.27;;;;;;;;;;4783357;29;20046;-84
2022/01/16 09:16:55;;;;;;;331.65;168.27;;;;;;;;;;4782918;29;20047;-82
2022/01/16 09:19:42;;;;;;;223.35;104.90;;;;;;;;;;4808425;29;20054;-81
2022/01/16 09:22:27;;;;;;;198.82;96.20;;;;;;;;;;4814397;29;20051;-82
2022/01/16 09:25:13;;;;;;;217.75;100.47;;;;;;;;;;4807063;29;20475;-82
2022/01/16 09:27:59;;;;;;;204.30;96.65;;;;;;;;;;4808388;29;20055;-79
2022/01/16 09:30:44;;;;;;;214.30;103.65;;;;;;;;;;4808293;29;20051;-80
2022/01/16 09:33:30;;;;;;;174.13;86.20;;;;;;;;;;4807585;29;20368;-81
2022/01/16 09:36:16;;;;;;;169.65;85.18;;;;;;;;;;4808215;29;20046;-82
2022/01/16 09:39:01;;;;;;;186.70;88.68;;;;;;;;;;4808129;29;20479;-80
2022/01/16 09:41:47;;;;;;;170.20;79.82;;;;;;;;;;4813483;29;20055;-82
2022/01/16 09:44:38;;;;;;;170.68;84.07;;;;;;;;;;4804784;29;20051;-80
2022/01/16 09:47:23;;;;;;;149.25;73.40;;;;;;;;;;4790949;29;20051;-80
2022/01/16 09:50:10;;;;;;;159.82;71.47;;;;;;;;;;4790829;30;20059;-82
2022/01/16 09:52:55;;;;;;;154.57;70.90;;;;;;;;;;4793044;29;20047;-80
2022/01/16 09:55:42;;;;;;;140.77;66.68;;;;;;;;;;4807839;29;20487;-80
2022/01/16 09:58:27;;;;;;;155.93;72.20;;;;;;;;;;4808378;29;20047;-81
2022/01/16 10:01:12;;;;;;;151.77;68.88;;;;;;;;;;4802730;29;20047;-80
2022/01/16 10:03:57;;;;;;;164.20;70.40;;;;;;;;;;4806289;29;20472;-80
2022/01/16 10:06:55;;;;;;;147.30;63.65;;;;;;;;;;4795140;29;20357;-83
2022/01/16 10:10:02;;;;;;;142.05;62.33;;;;;;;;;;4812929;29;20380;-78
2022/01/16 10:12:51;;;;;;;146.73;61.47;;;;;;;;;;4813582;29;20043;-80
2022/01/16 10:15:35;;;;;;;137.05;61.67;;;;;;;;;;4812055;29;20043;-77
2022/01/16 10:18:39;;;;;;;132.63;59.45;;;;;;;;;;4800236;29;20047;-79
2022/01/16 10:21:39;;;;;;;132.57;60.10;;;;;;;;;;4799736;29;20050;-80
2022/01/16 10:24:29;;;;;;;127.47;58.08;;;;;;;;;;4813422;29;20295;-82
2022/01/16 10:27:18;;;;;;;131.15;58.42;;;;;;;;;;4807394;29;20047;-80
2022/01/16 10:30:07;;;;;;;141.73;66.78;;;;;;;;;;4799510;29;20372;-81
2022/01/16 10:32:52;;;;;;;145.65;62.10;;;;;;;;;;4807191;29;20039;-79
2022/01/16 10:35:39;;;;;;;146.70;63.30;;;;;;;;;;4805848;29;20062;-80
2022/01/16 10:38:24;;;;;;;171.40;74.00;;;;;;;;;;4791103;29;20046;-81
2022/01/16 10:41:13;;;;;;;153.07;63.88;;;;;;;;;;4797014;29;20043;-79
2022/01/16 10:44:00;;;;;;;131.57;59.10;;;;;;;;;;4806964;29;20526;-80
2022/01/16 10:46:45;;;;;;;149.13;65.00;;;;;;;;;;4806949;29;20051;-82
2022/01/16 10:49:31;;;;;;;129.48;59.78;;;;;;;;;;4822118;29;20050;-79
2022/01/16 10:52:16;;;;;;;135.77;60.17;;;;;;;;;;4825560;29;20118;-80
2022/01/16 10:55:08;;;;;;;110.82;52.00;;;;;;;;;;4825580;29;20058;-80
2022/01/16 10:58:09;;;;;;;135.80;58.80;;;;;;;;;;4824742;29;20042;-79
2022/01/16 11:01:03;;;;;;;89.13;41.75;;;;;;;;;;4831765;29;20046;-79
2022/01/16 11:03:51;;;;;;;108.65;50.00;;;;;;;;;;4831162;29;20418;-81
2022/01/16 11:06:36;;;;;;;121.22;55.20;;;;;;;;;;4825581;29;20054;-81
2022/01/16 11:09:29;;;;;;;121.05;53.70;;;;;;;;;;4802057;29;20479;-81
2022/01/16 11:12:14;;;;;;;135.30;59.00;;;;;;;;;;4813966;29;20058;-81
2022/01/16 11:15:03;;;;;;;91.97;43.40;;;;;;;;;;4816734;29;20059;-79
2022/01/16 11:17:49;;;;;;;112.18;51.13;;;;;;;;;;4812120;29;20043;-78
2022/01/16 11:20:37;;;;;;;113.82;53.22;;;;;;;;;;4807034;29;20043;-81
2022/01/16 11:26:10;;;;;;;96.55;43.40;;;;;;;;;;4806482;29;20050;-80
2022/01/16 11:28:59;;;;;;;133.20;57.17;;;;;;;;;;4806241;29;20042;-81
2022/01/16 11:31:45;;;;;;;118.97;55.05;;;;;;;;;;4805975;29;20043;-81
2022/01/16 11:34:30;;;;;;;118.78;53.60;;;;;;;;;;4802325;29;20055;-80
2022/01/16 11:37:16;;;;;;;88.78;42.20;;;;;;;;;;4803197;29;20046;-82
2022/01/16 11:40:27;;;;;;;103.30;48.40;;;;;;;;;;4825023;29;20046;-81
2022/01/16 11:43:14;;;;;;;114.18;50.38;;;;;;;;;;4824656;29;20046;-82
2022/01/16 11:46:13;;;;;;;113.82;51.60;;;;;;;;;;4832213;29;20058;-81
2022/01/16 11:48:59;;;;;;;120.00;54.05;;;;;;;;;;4806959;29;20043;-81
2022/01/16 11:51:51;;;;;;;110.57;50.95;;;;;;;;;;4813978;29;20051;-81
2022/01/16 11:54:42;;;;;;;111.53;50.35;;;;;;;;;;4810252;29;20059;-82
2022/01/16 11:57:29;;;;;;;109.22;47.85;;;;;;;;;;4802120;29;20047;-81
2022/01/16 12:00:16;;;;;;;95.22;46.75;;;;;;;;;;4809980;29;20043;-81
2022/01/16 12:03:01;;;;;;;93.22;46.15;;;;;;;;;;4796279;29;20051;-83
2022/01/16 12:05:47;;;;;;;113.20;50.58;;;;;;;;;;4809766;29;20035;-82
2022/01/16 12:08:35;;;;;;;121.20;56.47;;;;;;;;;;4809366;29;20047;-82
2022/01/16 12:11:37;;;;;;;116.57;51.55;;;;;;;;;;4809660;29;20047;-82
2022/01/16 12:15:01;;;;;;;118.43;54.58;;;;;;;;;;4783460;29;20042;-81
2022/01/16 12:17:49;;;;;;;112.85;52.45;;;;;;;;;;4815465;29;20050;-80
2022/01/16 12:20:37;;;;;;;115.57;53.10;;;;;;;;;;4809710;29;20043;-81
2022/01/16 12:23:29;;;;;;;114.50;53.63;;;;;;;;;;4802044;29;20047;-81
2022/01/16 12:26:32;;;;;;;125.93;59.50;;;;;;;;;;4812758;29;20046;-81
2022/01/16 12:29:18;;;;;;;126.47;59.05;;;;;;;;;;4809721;29;20042;-85
2022/01/16 12:32:04;;;;;;;135.63;59.17;;;;;;;;;;4810437;29;20051;-86
2022/01/16 12:34:56;;;;;;;129.35;60.08;;;;;;;;;;4808850;29;20469;-87
2022/01/16 12:37:43;;;;;;;101.43;46.10;;;;;;;;;;4801663;29;20043;-87
2022/01/16 12:40:28;;;;;;;204.00;97.13;;;;;;;;;;4801588;29;20042;-88
2022/01/16 12:43:22;;;;;;;94.10;45.67;;;;;;;;;;4802098;29;20055;-85
2022/01/16 12:46:17;;;;;;;44.88;22.10;;;;;;;;;;4789892;29;20089;-86
2022/01/16 12:49:06;;;;;;;81.55;39.40;;;;;;;;;;4790050;29;20043;-86
2022/01/16 12:51:54;;;;;;;98.03;46.45;;;;;;;;;;4772990;30;20051;-84
2022/01/16 12:54:39;;;;;;;120.93;55.90;;;;;;;;;;4773152;30;20395;-84
2022/01/16 12:57:25;;;;;;;128.13;64.47;;;;;;;;;;4804111;29;20051;-85
2022/01/16 13:00:12;;;;;;;161.45;84.95;;;;;;;;;;4785979;30;20059;-86
2022/01/16 13:02:57;;;;;;;239.18;111.80;;;;;;;;;;4773195;30;20048;-84
2022/01/16 13:05:42;;;;;;;214.88;111.50;;;;;;;;;;4778691;30;20445;-83
2022/01/16 13:08:28;;;;;;;213.27;110.82;;;;;;;;;;4784158;30;20039;-82
2022/01/16 13:11:17;;;;;;;215.85;109.57;;;;;;;;;;4784736;30;20361;-85
2022/01/16 13:14:07;;;;;;;197.18;100.97;;;;;;;;;;4771736;30;20492;-86
2022/01/16 13:16:56;;;;;;;199.95;103.65;;;;;;;;;;4772185;30;20361;-83
2022/01/16 13:22:37;;;;;;;185.70;103.32;;;;;;;;;;4777355;30;20043;-83
2022/01/16 13:25:22;;;;;;;151.80;78.22;;;;;;;;;;4790476;30;20039;-83
2022/01/16 13:28:07;;;;;;;140.25;72.88;;;;;;;;;;4774446;30;20406;-83
2022/01/16 13:30:52;;;;;;;140.73;72.32;;;;;;;;;;4785709;30;20039;-83
2022/01/16 13:33:38;;;;;;;146.60;75.80;;;;;;;;;;4811194;29;20047;-83
2022/01/16 13:36:24;;;;;;;278.65;169.02;;;;;;;;;;4790197;30;20388;-83
2022/01/16 13:39:11;;;;;;;183.07;102.45;;;;;;;;;;4789782;30;20050;-86
2022/01/16 13:42:17;;;;;;;155.35;88.95;;;;;;;;;;4795213;29;20047;-84
2022/01/16 13:45:21;;;;;;;177.98;106.57;;;;;;;;;;4790055;30;20043;-83
2022/01/16 13:48:20;;;;;;;210.48;118.20;;;;;;;;;;4789978;30;20043;-84
2022/01/16 13:51:06;;;;;;;293.52;181.07;;;;;;;;;;4789855;29;20051;-85
2022/01/16 13:53:51;;;;;;;193.82;113.72;;;;;;;;;;4796041;29;20048;-83
2022/01/16 13:56:48;;;;;;;142.57;73.32;;;;;;;;;;4773690;30;20055;-85
2022/01/16 13:59:33;;;;;;;150.75;74.95;;;;;;;;;;4792206;29;20048;-84
2022/01/16 14:02:22;;;;;;;155.00;78.32;;;;;;;;;;4787720;30;20076;-84
2022/01/16 14:05:07;;;;;;;152.10;75.43;;;;;;;;;;4791352;30;20043;-84
2022/01/16 14:07:53;;;;;;;162.63;76.85;;;;;;;;;;4787255;29;20047;-87
2022/01/16 14:10:38;;;;;;;191.40;84.28;;;;;;;;;;4811138;29;20369;-82
2022/01/16 14:13:24;;;;;;;193.68;84.55;;;;;;;;;;4807376;29;20043;-86
2022/01/16 14:16:12;;;;;;;199.57;92.78;;;;;;;;;;4820055;29;20058;-87
2022/01/16 14:22:11;;;;;;;170.75;85.35;;;;;;;;;;4801966;29;20047;-85
2022/01/16 14:24:58;;;;;;;229.65;104.20;;;;;;;;;;4771596;30;20065;-87
2022/01/16 14:27:44;;;;;;;169.57;84.45;;;;;;;;;;4778337;30;20055;-84
2022/01/16 14:30:29;;;;;;;214.25;111.55;;;;;;;;;;4784829;30;20059;-83
2022/01/16 14:33:19;;;;;;;225.10;117.30;;;;;;;;;;4788311;30;20051;-84
2022/01/16 14:36:08;;;;;;;234.00;119.00;;;;;;;;;;4793202;29;20055;-87
2022/01/16 14:38:53;;;;;;;249.10;130.20;;;;;;;;;;4789142;30;20047;-85
2022/01/16 14:41:44;;;;;;;272.60;140.52;;;;;;;;;;4789699;29;20047;-82
2022/01/16 14:44:31;;;;;;;262.08;140.63;;;;;;;;;;4788627;30;20055;-83
2022/01/16 14:47:18;;;;;;;246.52;131.52;;;;;;;;;;4803741;29;20050;-86
2022/01/16 14:50:05;;;;;;;238.68;123.15;;;;;;;;;;4814069;29;20043;-87
2022/01/16 14:52:54;;;;;;;241.65;129.45;;;;;;;;;;4809552;29;20039;-84
2022/01/16 14:55:39;;;;;;;224.80;120.22;;;;;;;;;;4802538;29;20054;-85
2022/01/16 14:58:24;;;;;;;251.45;125.93;;;;;;;;;;4779703;29;20055;-86
2022/01/16 15:01:12;;;;;;;269.23;133.98;;;;;;;;;;4794592;29;20055;-86
2022/01/16 15:03:57;;;;;;;272.98;133.48;;;;;;;;;;4810590;29;20050;-83
2022/01/16 15:06:44;;;;;;;275.60;129.75;;;;;;;;;;4812758;29;20047;-83
2022/01/16 15:09:29;;;;;;;343.98;162.60;;;;;;;;;;4813541;29;20039;-81
2022/01/16 15:12:14;;;;;;;301.88;147.68;;;;;;;;;;4806656;29;20042;-81
2022/01/16 15:15:00;;;;;;;330.35;176.52;;;;;;;;;;4808975;29;20058;-82
2022/01/16 15:17:45;;;;;;;401.27;208.85;;;;;;;;;;4804622;29;20451;-80
2022/01/16 15:20:32;;;;;;;390.95;200.35;;;;;;;;;;4809812;29;20054;-82
2022/01/16 15:23:18;;;;;;;323.98;168.70;;;;;;;;;;4806816;29;20047;-82
2022/01/16 15:26:04;;;;;;;347.63;172.20;;;;;;;;;;4806212;29;20051;-81
2022/01/16 15:28:49;;;;;;;355.77;172.55;;;;;;;;;;4812903;29;20047;-83
2022/01/16 15:31:34;;;;;;;308.58;155.73;;;;;;;;;;4809430;29;20047;-81
2022/01/16 15:34:20;;;;;;;275.42;142.68;;;;;;;;;;4806333;29;20491;-80
2022/01/16 15:37:16;;;;;;;261.23;138.80;;;;;;;;;;4806703;29;20054;-83
2022/01/16 15:40:02;;;;;;;254.38;132.18;;;;;;;;;;4785918;29;20046;-82
2022/01/16 15:42:48;;;;;;;266.42;140.02;;;;;;;;;;4786332;29;20479;-82
2022/01/16 15:45:33;;;;;;;261.15;132.60;;;;;;;;;;4796061;29;20360;-82
2022/01/16 15:49:27;;;;;;;246.75;130.10;;;;;;;;;;4798266;29;20050;-82
2022/01/16 15:52:43;;;;;;;288.48;141.35;;;;;;;;;;4791255;30;20047;-83
2022/01/16 15:56:30;;;;;;;334.30;171.98;;;;;;;;;;4768465;30;20047;-83
2022/01/16 15:59:28;;;;;;;;;;;;;;;;;;4750898;30;20386;-80
2022/01/16 16:03:00;;;;;;;;;;;;;;;;;;4744460;30;19914;-82
2022/01/16 16:09:42;;;;;;;262.92;127.10;;;;;;;;;;4750365;30;20040;-82
2022/01/16 16:12:28;;;;;;;278.20;137.25;;;;;;;;;;4757243;30;20413;-82
2022/01/16 16:15:25;;;;;;;314.83;155.50;;;;;;;;;;4740894;30;20528;-83
2022/01/16 16:18:57;;;;;;;326.15;164.75;;;;;;;;;;4756142;30;20052;-82
2022/01/16 16:21:48;;;;;;;366.35;179.07;;;;;;;;;;4749396;30;20536;-82
2022/01/16 16:24:34;;;;;;;352.23;173.32;;;;;;;;;;4738481;30;20051;-82
2022/01/16 16:27:20;;;;;;;352.17;172.63;;;;;;;;;;4772854;30;20492;-81
2022/01/16 16:30:07;;;;;;;347.63;171.57;;;;;;;;;;4786480;29;20039;-82
2022/01/16 16:32:52;;;;;;;343.33;168.95;;;;;;;;;;4778869;30;20047;-81
2022/01/16 16:35:38;;;;;;;390.30;194.93;;;;;;;;;;4792545;29;20055;-83
2022/01/16 16:38:23;;;;;;;459.05;241.43;;;;;;;;;;4808846;29;20046;-83
2022/01/16 16:41:09;;;;;;;463.58;233.07;;;;;;;;;;4809569;29;20050;-82
2022/01/16 16:43:54;;;;;;;386.67;196.82;;;;;;;;;;4808394;29;20491;-82
2022/01/16 16:46:41;;;;;;;365.02;184.63;;;;;;;;;;4819211;29;20379;-81